Time;durP1;ratioP1;P1;durP2;ratioP2;P2;SDS_P1;SDS_P2;PMS_P1;PMS_P2;Temp;Humidity;BMP_temperature;BMP_pressure;BME280_temperature;BME280_humidity;BME280_pressure;Samples;Min_cycle;Max_cycle;Signal;HPM_P1;HPM_P2
2023/10/28 00:03:25;;;;;;;4.53;2.70;;;;;7.70;94750.00;;;;8248213;28;20233;-65
2023/10/28 00:07:29;;;;;;;4.47;2.73;;;;;7.70;94746.00;;;;8250799;28;20222;-66
2023/10/28 00:11:33;;;;;;;5.83;3.00;;;;;7.70;94747.00;;;;8250951;28;20665;-65
2023/10/28 00:15:37;;;;;;;6.27;3.20;;;;;7.90;94761.00;;;;8247850;28;20203;-65
2023/10/28 00:19:42;;;;;;;5.60;3.57;;;;;8.00;94765.00;;;;8249497;28;20234;-66
2023/10/28 00:23:46;;;;;;;7.20;3.47;;;;;8.10;94766.00;;;;8245755;28;20203;-66
2023/10/28 00:27:50;;;;;;;8.27;3.40;;;;;8.30;94765.00;;;;8250035;28;20317;-65
2023/10/28 00:31:54;;;;;;;5.97;3.00;;;;;8.40;94776.00;;;;8256431;28;20234;-65
2023/10/28 00:35:57;;;;;;;7.07;3.37;;;;;8.60;94781.00;;;;8249174;28;20719;-66
2023/10/28 00:40:00;;;;;;;8.47;3.53;;;;;8.80;94788.00;;;;8250570;28;20209;-66
2023/10/28 00:44:04;;;;;;;11.82;3.55;;;;;8.90;94800.00;;;;8249106;28;20202;-64
2023/10/28 00:48:11;;;;;;;10.10;3.30;;;;;9.00;94818.00;;;;8244220;28;20285;-67
2023/10/28 00:52:14;;;;;;;13.50;4.47;;;;;9.00;94810.00;;;;8245821;28;20211;-67
2023/10/28 00:56:18;;;;;;;9.70;5.17;;;;;9.10;94818.00;;;;8246552;28;20201;-68
2023/10/28 01:00:22;;;;;;;17.35;5.90;;;;;9.30;94816.00;;;;8245496;28;20203;-70
2023/10/28 01:04:26;;;;;;;13.30;5.38;;;;;9.40;94822.00;;;;8245597;28;20234;-70
2023/10/28 01:08:29;;;;;;;13.43;5.93;;;;;9.50;94820.00;;;;8249600;28;20226;-68
2023/10/28 01:12:33;;;;;;;12.32;6.72;;;;;9.60;94818.00;;;;8249269;28;20624;-70
2023/10/28 01:16:36;;;;;;;19.75;6.75;;;;;9.60;94821.00;;;;8244794;28;20200;-69
2023/10/28 01:20:40;;;;;;;16.23;7.22;;;;;9.60;94819.00;;;;8244038;28;20226;-70
2023/10/28 01:24:45;;;;;;;21.00;7.78;;;;;9.70;94818.00;;;;8248098;28;20199;-69
2023/10/28 01:28:48;;;;;;;19.58;9.00;;;;;9.70;94822.00;;;;8248304;28;20236;-70
2023/10/28 01:32:51;;;;;;;22.88;8.73;;;;;9.70;94825.00;;;;8246522;28;20210;-71
2023/10/28 01:36:56;;;;;;;19.75;9.30;;;;;9.70;94822.00;;;;8246229;28;20218;-69
2023/10/28 01:41:01;;;;;;;19.77;9.23;;;;;9.70;94825.00;;;;8246644;28;20290;-70
2023/10/28 01:45:05;;;;;;;25.27;10.05;;;;;9.70;94818.00;;;;8247198;28;20314;-69
2023/10/28 01:49:10;;;;;;;24.65;10.80;;;;;9.80;94821.00;;;;8245675;28;20252;-67
2023/10/28 01:53:13;;;;;;;26.50;10.85;;;;;9.80;94820.00;;;;8244349;28;20194;-69
2023/10/28 01:57:17;;;;;;;22.83;10.63;;;;;9.80;94811.00;;;;8248742;28;21066;-69
2023/10/28 02:01:23;;;;;;;22.23;10.18;;;;;9.80;94806.00;;;;8249269;28;20278;-68
2023/10/28 02:05:27;;;;;;;23.60;9.57;;;;;9.80;94808.00;;;;8245621;28;20230;-69
2023/10/28 02:09:32;;;;;;;24.83;11.00;;;;;9.80;94815.00;;;;8250284;28;20607;-68
2023/10/28 02:13:37;;;;;;;23.50;9.73;;;;;9.80;94812.00;;;;8250084;28;20205;-67
2023/10/28 02:17:40;;;;;;;18.27;8.00;;;;;9.90;94819.00;;;;8252765;28;20200;-67
2023/10/28 02:21:44;;;;;;;18.85;7.28;;;;;9.90;94821.00;;;;8257943;28;20199;-68
2023/10/28 02:25:47;;;;;;;15.02;5.93;;;;;9.90;94822.00;;;;8253533;28;20203;-68
2023/10/28 02:29:51;;;;;;;15.40;6.60;;;;;9.90;94825.00;;;;8253864;28;20604;-68
2023/10/28 02:33:54;;;;;;;13.02;5.60;;;;;9.90;94826.00;;;;8251398;28;20215;-67
2023/10/28 02:37:57;;;;;;;8.98;4.80;;;;;10.00;94830.00;;;;8252567;28;20202;-67
2023/10/28 02:42:01;;;;;;;11.80;4.85;;;;;10.00;94829.00;;;;8251332;28;20265;-68
2023/10/28 02:46:06;;;;;;;8.15;4.20;;;;;9.90;94830.00;;;;8250524;28;20234;-67
2023/10/28 02:50:11;;;;;;;9.50;3.80;;;;;9.90;94832.00;;;;8252108;28;20243;-68
2023/10/28 02:54:14;;;;;;;5.70;3.80;;;;;10.00;94839.00;;;;8251547;28;20222;-68
2023/10/28 02:58:19;;;;;;;4.90;3.13;;;;;9.90;94835.00;;;;8248694;28;20343;-68
2023/10/28 03:02:24;;;;;;;7.18;3.28;;;;;10.00;94837.00;;;;8274720;22;20237;-68
2023/10/28 03:06:27;;;;;;;7.15;3.25;;;;;9.90;94835.00;;;;8251829;28;20217;-69
2023/10/28 03:10:30;;;;;;;3.88;3.00;;;;;10.00;94840.00;;;;8255643;28;20715;-68
2023/10/28 03:14:33;;;;;;;5.40;2.42;;;;;10.00;94840.00;;;;8250759;28;20728;-69
2023/10/28 03:18:38;;;;;;;4.72;2.25;;;;;10.00;94854.00;;;;8250297;28;20198;-68
2023/10/28 03:22:41;;;;;;;3.17;2.33;;;;;10.00;94854.00;;;;8255644;28;20209;-68
2023/10/28 03:26:44;;;;;;;4.68;2.08;;;;;10.00;94864.00;;;;8253287;28;20202;-68
2023/10/28 03:30:47;;;;;;;2.78;2.00;;;;;10.10;94859.00;;;;8258949;28;20246;-67
2023/10/28 03:34:52;;;;;;;1.75;1.65;;;;;10.10;94856.00;;;;8253475;28;20206;-68
2023/10/28 03:38:55;;;;;;;5.45;1.90;;;;;10.10;94856.00;;;;8256644;28;20293;-68
2023/10/28 03:42:59;;;;;;;3.75;1.85;;;;;10.10;94847.00;;;;8251645;28;20229;-68
2023/10/28 03:47:03;;;;;;;5.93;2.10;;;;;10.10;94857.00;;;;8252335;28;20199;-69
2023/10/28 03:51:07;;;;;;;4.50;1.98;;;;;10.00;94856.00;;;;8259699;28;20298;-70
2023/10/28 03:55:11;;;;;;;2.55;1.50;;;;;10.10;94863.00;;;;8247802;28;20249;-71
2023/10/28 03:59:15;;;;;;;2.70;1.50;;;;;10.10;94867.00;;;;8259919;28;20303;-70
2023/10/28 04:03:18;;;;;;;1.98;1.55;;;;;10.10;94860.00;;;;8269445;28;20687;-70
2023/10/28 04:07:22;;;;;;;2.72;1.60;;;;;10.10;94870.00;;;;8280882;28;20781;-67
2023/10/28 04:11:26;;;;;;;2.20;1.88;;;;;10.00;94876.00;;;;8284330;28;20281;-70
2023/10/28 04:15:29;;;;;;;2.33;1.42;;;;;9.90;94871.00;;;;8278385;28;20234;-69
2023/10/28 04:19:32;;;;;;;1.35;1.27;;;;;9.80;94881.00;;;;8276758;28;20194;-70
2023/10/28 04:23:39;;;;;;;1.70;1.60;;;;;9.80;94889.00;;;;8281243;28;20230;-69
2023/10/28 04:27:42;;;;;;;4.25;1.50;;;;;9.90;94887.00;;;;8280945;28;20662;-70
2023/10/28 04:31:46;;;;;;;7.40;1.60;;;;;9.90;94898.00;;;;8275837;28;20212;-69
2023/10/28 04:35:49;;;;;;;4.13;1.60;;;;;9.90;94892.00;;;;8278837;28;20587;-69
2023/10/28 04:39:53;;;;;;;2.35;1.30;;;;;10.00;94898.00;;;;8271121;28;20204;-69
2023/10/28 04:43:57;;;;;;;6.78;1.50;;;;;10.00;94907.00;;;;8274334;28;20228;-69
2023/10/28 04:48:00;;;;;;;4.40;2.13;;;;;10.00;94906.00;;;;8268653;28;20745;-69
2023/10/28 04:52:08;;;;;;;3.17;1.35;;;;;10.00;94905.00;;;;8279730;28;20220;-71
2023/10/28 04:56:12;;;;;;;2.85;1.40;;;;;10.00;94907.00;;;;8277864;28;20243;-69
2023/10/28 05:00:16;;;;;;;2.80;1.40;;;;;10.00;94908.00;;;;8276681;28;20196;-67
2023/10/28 05:04:19;;;;;;;7.97;1.48;;;;;10.00;94916.00;;;;8278714;28;20241;-69
2023/10/28 05:08:24;;;;;;;5.18;1.63;;;;;9.90;94917.00;;;;8281166;28;20244;-69
2023/10/28 05:12:28;;;;;;;4.25;1.52;;;;;9.90;94920.00;;;;8284337;28;20202;-69
2023/10/28 05:16:31;;;;;;;2.20;2.00;;;;;9.90;94928.00;;;;8272974;28;20194;-68
2023/10/28 05:20:34;;;;;;;4.85;2.78;;;;;9.90;94936.00;;;;8273972;28;20868;-68
2023/10/28 05:24:37;;;;;;;71.53;26.25;;;;;9.80;94950.00;;;;8280098;28;20203;-70
2023/10/28 05:28:43;;;;;;;136.05;34.03;;;;;9.90;94949.00;;;;8280261;28;20769;-69
2023/10/28 05:32:46;;;;;;;188.90;51.08;;;;;9.80;94948.00;;;;8279625;28;20628;-68
2023/10/28 05:36:49;;;;;;;270.70;90.53;;;;;9.80;94955.00;;;;8278806;28;20213;-69
2023/10/28 05:40:54;;;;;;;79.05;30.65;;;;;9.80;94956.00;;;;8281637;28;20298;-69
2023/10/28 05:45:00;;;;;;;19.70;9.45;;;;;9.80;94959.00;;;;8282937;28;20206;-70
2023/10/28 05:49:03;;;;;;;22.13;10.27;;;;;9.70;94958.00;;;;8281694;28;20241;-69
2023/10/28 05:53:08;;;;;;;23.23;13.10;;;;;9.60;94954.00;;;;8284607;28;20196;-70
2023/10/28 05:57:11;;;;;;;11.60;5.63;;;;;9.60;94965.00;;;;8287760;28;20689;-70
2023/10/28 06:01:16;;;;;;;5.65;3.35;;;;;9.50;94967.00;;;;8280795;28;20312;-67
2023/10/28 06:05:19;;;;;;;9.40;4.28;;;;;9.50;94973.00;;;;8285247;28;20640;-68
2023/10/28 06:09:23;;;;;;;8.75;3.80;;;;;9.40;94966.00;;;;8283239;28;20222;-70
2023/10/28 06:13:28;;;;;;;8.55;2.28;;;;;9.40;94968.00;;;;8284373;28;20869;-70
2023/10/28 06:17:32;;;;;;;4.80;2.00;;;;;9.50;94975.00;;;;8283067;28;20224;-67
2023/10/28 06:21:35;;;;;;;6.70;1.70;;;;;9.60;94984.00;;;;8276007;28;20281;-70
2023/10/28 06:25:38;;;;;;;5.85;1.67;;;;;9.60;94988.00;;;;8286727;28;20207;-69
2023/10/28 06:29:41;;;;;;;4.88;2.10;;;;;9.60;94995.00;;;;8279352;28;20230;-68
2023/10/28 06:33:46;;;;;;;5.53;1.90;;;;;9.70;94992.00;;;;8280341;28;20227;-68
2023/10/28 06:37:49;;;;;;;7.80;2.03;;;;;9.70;94985.00;;;;8281622;28;21100;-67
2023/10/28 06:41:52;;;;;;;5.55;1.98;;;;;9.90;94996.00;;;;8284473;28;20201;-70
2023/10/28 06:45:55;;;;;;;5.50;1.83;;;;;9.90;95004.00;;;;8282808;28;20214;-68
2023/10/28 06:50:00;;;;;;;3.00;1.50;;;;;9.90;94992.00;;;;8279065;28;20237;-68
2023/10/28 06:54:04;;;;;;;3.55;1.80;;;;;9.90;94992.00;;;;8286877;28;20206;-67
2023/10/28 06:58:07;;;;;;;2.60;1.60;;;;;9.90;95002.00;;;;8285407;28;20609;-69
2023/10/28 07:02:10;;;;;;;6.43;1.75;;;;;10.00;95001.00;;;;8283504;28;20222;-70
2023/10/28 07:06:15;;;;;;;8.70;2.33;;;;;10.10;95013.00;;;;8279409;28;20283;-70
2023/10/28 07:10:19;;;;;;;5.47;2.20;;;;;10.20;95009.00;;;;8278412;28;20237;-70
2023/10/28 07:14:23;;;;;;;6.38;2.42;;;;;10.50;95011.00;;;;8277663;28;20297;-69
2023/10/28 07:18:27;;;;;;;4.75;1.98;;;;;10.80;95005.00;;;;8278107;28;20600;-70
2023/10/28 07:22:31;;;;;;;6.63;1.88;;;;;10.90;95016.00;;;;8279775;28;20591;-68
2023/10/28 07:26:35;;;;;;;6.07;2.90;;;;;10.90;95017.00;;;;8280436;28;20300;-67
2023/10/28 07:30:45;;;;;;;7.53;2.20;;;;;10.80;95020.00;;;;8277528;28;20223;-69
2023/10/28 07:34:48;;;;;;;8.43;1.90;;;;;10.80;95032.00;;;;8280509;28;20191;-69
2023/10/28 07:38:52;;;;;;;7.88;1.88;;;;;10.80;95036.00;;;;8278789;28;20685;-70
2023/10/28 07:42:55;;;;;;;3.58;1.83;;;;;10.80;95048.00;;;;8284754;28;20238;-67
2023/10/28 07:47:00;;;;;;;4.78;1.70;;;;;10.90;95050.00;;;;8279636;28;20211;-69
2023/10/28 07:51:04;;;;;;;5.63;1.77;;;;;10.90;95061.00;;;;8280860;28;20265;-69
2023/10/28 07:55:10;;;;;;;3.00;1.70;;;;;11.00;95064.00;;;;8283636;28;20313;-68
2023/10/28 07:59:14;;;;;;;1.67;1.40;;;;;11.10;95066.00;;;;8283433;28;20206;-68
2023/10/28 08:03:17;;;;;;;4.82;2.08;;;;;11.20;95068.00;;;;8282033;28;20281;-68
2023/10/28 08:07:21;;;;;;;5.18;1.83;;;;;11.30;95070.00;;;;8282278;28;20647;-70
2023/10/28 08:11:26;;;;;;;4.22;1.30;;;;;11.40;95076.00;;;;8283000;28;20220;-69
2023/10/28 08:15:30;;;;;;;6.90;1.75;;;;;11.60;95085.00;;;;8277740;28;20280;-68
2023/10/28 08:19:33;;;;;;;3.25;1.30;;;;;11.80;95084.00;;;;8279906;28;20232;-70
2023/10/28 08:23:38;;;;;;;8.55;1.65;;;;;11.80;95089.00;;;;8275602;28;20800;-68
2023/10/28 08:27:43;;;;;;;5.07;2.05;;;;;11.80;95090.00;;;;8281903;28;20279;-70
2023/10/28 08:31:46;;;;;;;5.68;1.55;;;;;11.90;95093.00;;;;8280060;28;20385;-70
2023/10/28 08:35:49;;;;;;;2.85;1.30;;;;;12.00;95097.00;;;;8279256;28;20213;-68
2023/10/28 08:39:53;;;;;;;3.08;1.38;;;;;12.10;95113.00;;;;8279583;28;20328;-67
2023/10/28 08:43:58;;;;;;;2.58;1.33;;;;;12.20;95108.00;;;;8278153;28;20197;-66
2023/10/28 08:48:02;;;;;;;3.13;1.40;;;;;12.30;95120.00;;;;8277984;28;20636;-70
2023/10/28 08:52:10;;;;;;;2.13;1.23;;;;;12.40;95118.00;;;;8278405;28;20226;-70
2023/10/28 08:56:17;;;;;;;1.40;1.30;;;;;12.60;95127.00;;;;8281143;28;20211;-69
2023/10/28 09:00:23;;;;;;;2.50;1.10;;;;;12.80;95135.00;;;;8278336;28;20862;-70
2023/10/28 09:04:26;;;;;;;2.35;1.10;;;;;13.10;95142.00;;;;8274490;28;20995;-67
2023/10/28 09:08:29;;;;;;;1.20;1.10;;;;;13.30;95131.00;;;;8281509;28;20285;-69
2023/10/28 09:12:33;;;;;;;1.65;1.25;;;;;13.40;95125.00;;;;8280773;28;20237;-68
2023/10/28 09:16:37;;;;;;;2.08;1.25;;;;;13.40;95131.00;;;;8276785;28;20197;-68
2023/10/28 09:20:42;;;;;;;5.13;1.50;;;;;13.30;95131.00;;;;8278515;28;20263;-69
2023/10/28 09:24:47;;;;;;;3.22;1.30;;;;;13.30;95120.00;;;;8272536;28;20710;-69
2023/10/28 09:28:53;;;;;;;3.58;1.50;;;;;13.30;95125.00;;;;8272126;28;20212;-68
2023/10/28 09:32:58;;;;;;;1.52;1.33;;;;;13.30;95133.00;;;;8276942;28;20268;-68
2023/10/28 09:37:02;;;;;;;3.72;1.38;;;;;13.40;95136.00;;;;8278300;28;20225;-65
2023/10/28 09:41:07;;;;;;;2.63;1.40;;;;;13.40;95137.00;;;;8279087;28;20301;-67
2023/10/28 09:45:10;;;;;;;3.13;1.30;;;;;13.50;95135.00;;;;8278596;28;20202;-68
2023/10/28 09:49:16;;;;;;;3.38;1.20;;;;;13.60;95139.00;;;;8274043;28;20198;-69
2023/10/28 09:53:30;;;;;;;1.90;1.20;;;;;13.60;95135.00;;;;8277454;28;20218;-68
2023/10/28 09:57:34;;;;;;;1.35;1.15;;;;;13.70;95129.00;;;;8279315;28;20198;-69
2023/10/28 10:01:48;;;;;;;4.85;1.05;;;;;13.80;95135.00;;;;8279347;28;20236;-67
2023/10/28 10:05:53;;;;;;;2.67;1.20;;;;;13.90;95125.00;;;;8282586;28;20260;-69
2023/10/28 10:10:10;;;;;;;1.35;1.25;;;;;14.00;95121.00;;;;8275711;28;20833;-68
2023/10/28 10:14:13;;;;;;;3.42;1.50;;;;;14.30;95131.00;;;;8277793;28;20699;-69
2023/10/28 10:18:23;;;;;;;1.23;1.17;;;;;14.50;95118.00;;;;8276637;28;20233;-67
2023/10/28 10:22:30;;;;;;;2.33;1.33;;;;;14.70;95131.00;;;;8276181;28;20210;-68
2023/10/28 10:26:35;;;;;;;3.92;1.35;;;;;14.60;95131.00;;;;8275135;28;20201;-67
2023/10/28 10:30:39;;;;;;;3.13;1.20;;;;;14.80;95141.00;;;;8279749;28;20769;-68
2023/10/28 10:34:45;;;;;;;6.63;1.50;;;;;15.10;95133.00;;;;8283092;28;20289;-68
2023/10/28 10:38:50;;;;;;;1.23;1.10;;;;;15.20;95131.00;;;;8278849;28;20198;-68
2023/10/28 10:42:56;;;;;;;1.63;1.10;;;;;15.30;95137.00;;;;8282699;28;20686;-67
2023/10/28 10:46:59;;;;;;;2.90;1.10;;;;;15.60;95134.00;;;;8283719;28;20213;-68
2023/10/28 10:51:04;;;;;;;5.38;1.52;;;;;15.80;95137.00;;;;8284957;28;20606;-68
2023/10/28 10:55:09;;;;;;;1.77;1.10;;;;;16.00;95127.00;;;;8282505;28;20714;-68
2023/10/28 10:59:12;;;;;;;1.67;1.10;;;;;16.40;95122.00;;;;8281488;28;21420;-68
2023/10/28 11:03:16;;;;;;;2.35;1.45;;;;;16.30;95124.00;;;;8280626;28;20229;-68
2023/10/28 11:07:19;;;;;;;1.95;1.00;;;;;16.20;95122.00;;;;8283421;28;20202;-68
2023/10/28 11:11:25;;;;;;;2.30;1.40;;;;;16.20;95131.00;;;;8282042;28;20657;-66
2023/10/28 11:15:28;;;;;;;2.90;1.30;;;;;16.30;95128.00;;;;8279835;28;20200;-67
2023/10/28 11:19:34;;;;;;;2.78;1.20;;;;;16.40;95125.00;;;;8282970;28;20533;-68
2023/10/28 11:23:37;;;;;;;1.95;1.10;;;;;16.60;95134.00;;;;8279812;28;20213;-68
2023/10/28 11:27:42;;;;;;;4.05;1.20;;;;;16.70;95129.00;;;;8281623;28;20202;-68
2023/10/28 11:31:46;;;;;;;3.22;1.25;;;;;16.80;95131.00;;;;8282278;28;20230;-67
2023/10/28 11:35:51;;;;;;;4.20;1.33;;;;;16.60;95139.00;;;;8280436;28;20206;-68
2023/10/28 11:39:55;;;;;;;3.70;1.20;;;;;16.50;95138.00;;;;8278048;28;20211;-67
2023/10/28 11:44:00;;;;;;;2.25;1.40;;;;;16.70;95136.00;;;;8282258;28;20238;-69
2023/10/28 11:48:03;;;;;;;2.00;1.23;;;;;17.00;95137.00;;;;8279398;28;20206;-67
2023/10/28 11:52:06;;;;;;;1.77;1.45;;;;;16.90;95141.00;;;;8280882;28;20322;-67
2023/10/28 11:56:10;;;;;;;3.00;1.05;;;;;16.80;95134.00;;;;8280510;28;20314;-67
2023/10/28 12:00:15;;;;;;;2.88;1.30;;;;;17.00;95136.00;;;;8276769;28;20194;-69
2023/10/28 12:04:18;;;;;;;3.15;1.20;;;;;17.20;95146.00;;;;8278670;28;20234;-67
2023/10/28 12:08:22;;;;;;;12.93;1.48;;;;;17.10;95138.00;;;;8277124;28;20769;-70
2023/10/28 12:12:25;;;;;;;6.07;1.40;;;;;17.00;95135.00;;;;8282997;28;20236;-69
2023/10/28 12:16:31;;;;;;;2.00;1.10;;;;;17.10;95132.00;;;;8275846;28;20221;-68
2023/10/28 12:20:34;;;;;;;1.42;1.00;;;;;17.10;95119.00;;;;8289281;28;20729;-68
2023/10/28 12:24:37;;;;;;;3.50;1.23;;;;;17.00;95112.00;;;;8276881;28;20205;-69
2023/10/28 12:28:41;;;;;;;1.52;1.23;;;;;16.90;95127.00;;;;8278206;28;21667;-68
2023/10/28 12:32:46;;;;;;;1.95;1.20;;;;;16.80;95130.00;;;;8273779;28;20268;-68
2023/10/28 12:36:49;;;;;;;2.45;1.20;;;;;16.80;95122.00;;;;8276637;28;20240;-69
2023/10/28 12:40:52;;;;;;;1.10;1.00;;;;;16.90;95124.00;;;;8277240;28;20317;-66
2023/10/28 12:44:55;;;;;;;1.65;1.10;;;;;17.10;95116.00;;;;8279375;28;20289;-69
2023/10/28 12:49:00;;;;;;;2.45;1.00;;;;;17.20;95117.00;;;;8276627;28;20285;-68
2023/10/28 12:53:03;;;;;;;3.83;1.17;;;;;17.40;95116.00;;;;8275449;28;20226;-69
2023/10/28 12:57:11;;;;;;;1.85;1.10;;;;;17.50;95128.00;;;;8277748;28;20202;-68
2023/10/28 13:01:14;;;;;;;1.00;1.00;;;;;17.40;95111.00;;;;8275498;28;20253;-69
2023/10/28 13:05:19;;;;;;;1.58;1.13;;;;;17.20;95104.00;;;;8277227;28;20286;-69
2023/10/28 13:09:23;;;;;;;2.80;0.98;;;;;17.10;95109.00;;;;8274622;28;20257;-68
2023/10/28 13:13:26;;;;;;;3.17;1.70;;;;;17.00;95105.00;;;;8285414;28;20232;-70
2023/10/28 13:17:29;;;;;;;3.78;1.20;;;;;16.90;95103.00;;;;8276656;28;20305;-68
2023/10/28 13:21:33;;;;;;;2.30;1.15;;;;;16.90;95096.00;;;;8272958;28;20250;-69
2023/10/28 13:25:36;;;;;;;1.55;1.20;;;;;16.90;95094.00;;;;8278892;28;20207;-69
2023/10/28 13:29:40;;;;;;;2.88;1.40;;;;;16.90;95089.00;;;;8278516;28;20236;-69
2023/10/28 13:33:43;;;;;;;3.72;1.10;;;;;16.90;95096.00;;;;8274056;28;21524;-67
2023/10/28 13:37:48;;;;;;;1.33;1.20;;;;;16.80;95102.00;;;;8278590;28;20888;-70
2023/10/28 13:41:51;;;;;;;3.85;1.20;;;;;16.90;95100.00;;;;8279026;28;20201;-70
2023/10/28 13:45:54;;;;;;;3.70;1.30;;;;;17.00;95100.00;;;;8281189;28;20289;-70
2023/10/28 13:49:57;;;;;;;5.25;1.42;;;;;17.10;95098.00;;;;8273523;28;20204;-69
2023/10/28 13:54:02;;;;;;;3.05;1.40;;;;;17.10;95102.00;;;;8277004;28;20292;-68
2023/10/28 13:58:05;;;;;;;4.88;1.40;;;;;17.10;95091.00;;;;8277164;28;20190;-70
2023/10/28 14:02:09;;;;;;;207.25;76.53;;;;;16.90;95099.00;;;;8274990;28;20226;-68
2023/10/28 14:06:14;;;;;;;70.85;48.22;;;;;16.80;95093.00;;;;8279312;28;20771;-68
2023/10/28 14:10:19;;;;;;;26.95;16.63;;;;;16.70;95088.00;;;;8282264;28;20226;-70
2023/10/28 14:14:22;;;;;;;13.43;12.38;;;;;16.70;95094.00;;;;8281385;28;20320;-70
2023/10/28 14:18:26;;;;;;;6.38;5.88;;;;;16.70;95089.00;;;;8287711;28;20213;-70
2023/10/28 14:22:29;;;;;;;7.43;6.78;;;;;16.60;95085.00;;;;8277907;28;20198;-69
2023/10/28 14:26:35;;;;;;;1.80;1.70;;;;;16.60;95069.00;;;;8286457;28;20234;-69
2023/10/28 14:30:38;;;;;;;4.07;1.80;;;;;16.60;95061.00;;;;8283009;28;20646;-69
2023/10/28 14:34:41;;;;;;;5.10;2.13;;;;;16.60;95061.00;;;;8282394;28;20627;-70
2023/10/28 14:38:45;;;;;;;2.83;1.60;;;;;16.60;95061.00;;;;8284949;28;20208;-69
2023/10/28 14:42:49;;;;;;;1.75;1.52;;;;;16.50;95071.00;;;;8283084;28;20226;-69
2023/10/28 14:46:52;;;;;;;6.38;5.75;;;;;16.30;95080.00;;;;8285751;28;20287;-69
2023/10/28 14:50:56;;;;;;;6.43;4.45;;;;;16.20;95091.00;;;;8283373;28;20273;-70
2023/10/28 14:55:00;;;;;;;4.53;1.67;;;;;16.00;95091.00;;;;8282002;28;20244;-68
2023/10/28 14:59:04;;;;;;;5.63;2.10;;;;;16.00;95119.00;;;;8272387;28;20256;-67
2023/10/28 15:03:08;;;;;;;5.20;1.60;;;;;15.90;95132.00;;;;8285238;28;20229;-68
2023/10/28 15:07:11;;;;;;;3.08;1.80;;;;;15.80;95143.00;;;;8292223;28;20201;-68
2023/10/28 15:11:14;;;;;;;4.50;1.70;;;;;15.60;95155.00;;;;8288650;28;21029;-67
2023/10/28 15:15:19;;;;;;;3.28;1.65;;;;;15.20;95174.00;;;;8278077;28;20256;-67
2023/10/28 15:19:22;;;;;;;5.45;1.77;;;;;14.60;95181.00;;;;8278178;28;20268;-67
2023/10/28 15:23:25;;;;;;;5.95;1.67;;;;;14.10;95184.00;;;;8278540;28;20236;-66
2023/10/28 15:27:28;;;;;;;4.35;1.60;;;;;13.70;95172.00;;;;8282311;28;20857;-66
2023/10/28 15:31:34;;;;;;;8.65;2.05;;;;;13.30;95171.00;;;;8283995;28;20228;-66
2023/10/28 15:35:38;;;;;;;2.97;1.77;;;;;13.00;95165.00;;;;8283723;28;20315;-67
2023/10/28 15:39:41;;;;;;;4.53;1.60;;;;;12.80;95172.00;;;;8282440;28;21113;-67
2023/10/28 15:43:45;;;;;;;7.35;1.88;;;;;12.60;95167.00;;;;8281271;28;20730;-67
2023/10/28 15:47:49;;;;;;;6.63;2.60;;;;;12.50;95158.00;;;;8284358;28;20198;-66
2023/10/28 15:51:53;;;;;;;9.13;1.98;;;;;12.50;95167.00;;;;8283297;28;20416;-67
2023/10/28 15:55:56;;;;;;;5.47;1.80;;;;;12.40;95179.00;;;;8281046;28;20206;-67
2023/10/28 15:59:59;;;;;;;6.45;2.40;;;;;12.30;95177.00;;;;8274177;28;20619;-66
2023/10/28 16:04:04;;;;;;;7.38;2.35;;;;;12.30;95171.00;;;;8280734;28;20260;-67
2023/10/28 16:08:08;;;;;;;10.50;2.20;;;;;12.30;95169.00;;;;8283254;28;20215;-67
2023/10/28 16:12:12;;;;;;;8.45;2.28;;;;;12.20;95177.00;;;;8280115;28;20257;-68
2023/10/28 16:16:15;;;;;;;6.63;2.13;;;;;12.30;95177.00;;;;8281605;28;20217;-66
2023/10/28 16:20:20;;;;;;;8.73;1.80;;;;;12.20;95174.00;;;;8279851;28;21073;-67
2023/10/28 16:24:23;;;;;;;13.57;5.55;;;;;12.20;95165.00;;;;8275310;28;20287;-68
2023/10/28 16:28:26;;;;;;;8.85;3.78;;;;;12.20;95170.00;;;;8283916;28;20233;-65
2023/10/28 16:32:30;;;;;;;10.23;3.85;;;;;12.20;95172.00;;;;8275848;28;20240;-65
2023/10/28 16:36:34;;;;;;;6.75;3.30;;;;;12.20;95167.00;;;;8273555;28;20213;-65
2023/10/28 16:40:39;;;;;;;7.50;3.50;;;;;12.10;95177.00;;;;8274554;28;20202;-65
2023/10/28 16:44:42;;;;;;;6.25;2.70;;;;;12.00;95176.00;;;;8279935;28;20203;-65
2023/10/28 16:48:46;;;;;;;12.18;2.95;;;;;11.90;95186.00;;;;8278978;28;20208;-65
2023/10/28 16:52:51;;;;;;;7.40;2.28;;;;;11.90;95189.00;;;;8282384;28;20312;-65
2023/10/28 16:56:54;;;;;;;7.95;2.88;;;;;11.90;95197.00;;;;8273082;28;20220;-65
2023/10/28 17:00:57;;;;;;;7.65;2.78;;;;;11.90;95204.00;;;;8276641;28;20767;-65
2023/10/28 17:05:00;;;;;;;13.80;3.40;;;;;11.90;95208.00;;;;8271824;28;20214;-63
2023/10/28 17:09:05;;;;;;;7.00;4.05;;;;;11.80;95207.00;;;;8270878;28;20205;-63
2023/10/28 17:13:10;;;;;;;10.38;3.83;;;;;11.70;95197.00;;;;8276404;28;20223;-63
2023/10/28 17:17:13;;;;;;;10.70;4.47;;;;;11.70;95197.00;;;;8274531;28;20210;-63
2023/10/28 17:21:19;;;;;;;13.20;4.07;;;;;11.70;95204.00;;;;8276331;28;20200;-63
2023/10/28 17:25:23;;;;;;;19.00;5.63;;;;;11.70;95202.00;;;;8275897;28;20742;-63
2023/10/28 17:29:27;;;;;;;18.85;4.90;;;;;11.70;95207.00;;;;8279960;28;20201;-64
2023/10/28 17:33:31;;;;;;;16.80;8.25;;;;;11.60;95207.00;;;;8279695;28;20230;-64
2023/10/28 17:37:34;;;;;;;21.17;7.05;;;;;11.60;95211.00;;;;8273951;28;20290;-64
2023/10/28 17:41:40;;;;;;;21.55;6.30;;;;;11.60;95198.00;;;;8283711;28;20194;-63
2023/10/28 17:45:43;;;;;;;10.30;5.25;;;;;11.60;95210.00;;;;8282571;28;20201;-63
2023/10/28 17:49:46;;;;;;;18.73;6.65;;;;;11.60;95194.00;;;;8280398;28;20251;-64
2023/10/28 17:53:50;;;;;;;20.10;7.75;;;;;11.60;95194.00;;;;8283952;28;20243;-64
2023/10/28 17:57:54;;;;;;;17.98;6.43;;;;;11.50;95204.00;;;;8277469;28;20205;-66
2023/10/28 18:02:00;;;;;;;12.23;5.32;;;;;11.50;95202.00;;;;8279157;28;20731;-66
2023/10/28 18:06:04;;;;;;;13.07;5.20;;;;;11.40;95193.00;;;;8285023;28;20223;-67
2023/10/28 18:10:08;;;;;;;11.82;4.20;;;;;11.30;95197.00;;;;8286487;28;20210;-67
2023/10/28 18:14:13;;;;;;;9.90;4.38;;;;;11.20;95178.00;;;;8284604;28;20226;-66
2023/10/28 18:18:17;;;;;;;9.00;5.55;;;;;11.20;95178.00;;;;8283944;28;20203;-68
2023/10/28 18:22:20;;;;;;;11.48;4.82;;;;;11.10;95180.00;;;;8281400;28;20563;-67
2023/10/28 18:26:24;;;;;;;11.63;5.25;;;;;11.20;95188.00;;;;8280932;28;20208;-67
2023/10/28 18:30:28;;;;;;;7.82;4.80;;;;;11.20;95182.00;;;;8280156;28;20213;-68
2023/10/28 18:34:31;;;;;;;20.02;6.70;;;;;11.10;95184.00;;;;8284095;28;20228;-67
2023/10/28 18:38:35;;;;;;;12.43;6.07;;;;;11.10;95183.00;;;;8284432;28;20195;-68
2023/10/28 18:42:40;;;;;;;9.20;4.22;;;;;11.00;95193.00;;;;8279748;28;20285;-67
2023/10/28 18:46:44;;;;;;;15.25;4.63;;;;;10.90;95184.00;;;;8282932;28;20214;-67
2023/10/28 18:50:47;;;;;;;14.23;6.38;;;;;10.80;95180.00;;;;8283574;28;20235;-67
2023/10/28 18:54:50;;;;;;;5.57;3.40;;;;;10.70;95194.00;;;;8286665;28;20888;-68
2023/10/28 18:58:53;;;;;;;8.35;3.35;;;;;10.60;95193.00;;;;8276868;28;20214;-67
2023/10/28 19:02:58;;;;;;;11.75;4.22;;;;;10.60;95194.00;;;;8282575;28;20343;-67
2023/10/28 19:07:02;;;;;;;15.80;4.72;;;;;10.60;95192.00;;;;8280637;28;20202;-67
2023/10/28 19:11:06;;;;;;;8.57;4.05;;;;;10.60;95182.00;;;;8280064;28;20208;-67
2023/10/28 19:15:10;;;;;;;11.48;4.22;;;;;10.60;95198.00;;;;8279608;28;20226;-67
2023/10/28 19:19:14;;;;;;;8.10;3.33;;;;;10.60;95206.00;;;;8281469;28;20302;-67
2023/10/28 19:23:19;;;;;;;12.32;3.97;;;;;10.60;95215.00;;;;8283646;28;20210;-68
2023/10/28 19:27:22;;;;;;;8.88;3.67;;;;;10.60;95231.00;;;;8282508;28;20202;-68
2023/10/28 19:31:25;;;;;;;10.93;4.38;;;;;10.70;95242.00;;;;8280491;28;20735;-67
2023/10/28 19:35:30;;;;;;;16.63;5.20;;;;;10.70;95242.00;;;;8286233;28;20854;-68
2023/10/28 19:39:33;;;;;;;15.20;4.57;;;;;10.80;95245.00;;;;8281341;28;20208;-68
2023/10/28 19:43:36;;;;;;;13.05;4.43;;;;;10.80;95225.00;;;;8278383;28;20249;-67
2023/10/28 19:47:41;;;;;;;10.38;5.20;;;;;10.70;95224.00;;;;8284764;28;20497;-67
2023/10/28 19:51:46;;;;;;;12.63;5.00;;;;;10.70;95207.00;;;;8280780;28;20318;-67
2023/10/28 19:55:50;;;;;;;11.98;4.95;;;;;10.70;95204.00;;;;8284034;28;20230;-67
2023/10/28 19:59:53;;;;;;;12.32;4.20;;;;;10.70;95223.00;;;;8278881;28;20228;-68
2023/10/28 20:03:57;;;;;;;10.82;5.53;;;;;10.80;95229.00;;;;8280275;28;20244;-68
2023/10/28 20:08:01;;;;;;;14.48;4.82;;;;;10.80;95234.00;;;;8280737;28;20208;-68
2023/10/28 20:12:05;;;;;;;17.13;4.95;;;;;10.80;95225.00;;;;8277194;28;20198;-68
2023/10/28 20:16:08;;;;;;;14.35;4.32;;;;;10.80;95233.00;;;;8281416;28;20240;-68
2023/10/28 20:20:13;;;;;;;7.43;3.40;;;;;10.80;95235.00;;;;8279718;28;20263;-68